Time;durP1;ratioP1;P1;durP2;ratioP2;P2;SDS_P1;SDS_P2;PMS_P1;PMS_P2;Temp;Humidity;BMP_temperature;BMP_pressure;BME280_temperature;BME280_humidity;BME280_pressure;Samples;Min_cycle;Max_cycle;Signal;HPM_P1;HPM_P2
2021/05/03 00:02:44;;;;;;;13.70;3.92;;;;;;;23.09;100.00;100399.97;5054045;28;20024;-75
2021/05/03 00:05:30;;;;;;;18.65;4.53;;;;;;;22.72;100.00;100396.50;5055551;28;20094;-76
2021/05/03 00:08:15;;;;;;;18.92;4.40;;;;;;;22.59;100.00;100400.16;5055018;28;20132;-76
2021/05/03 00:11:02;;;;;;;16.23;4.15;;;;;;;22.59;100.00;100400.97;5054118;28;20091;-76
2021/05/03 00:13:47;;;;;;;12.05;3.35;;;;;;;22.38;100.00;100405.16;5054704;28;20021;-75
2021/05/03 00:16:33;;;;;;;17.20;4.00;;;;;;;22.34;100.00;100410.84;5055190;28;20035;-75
2021/05/03 00:19:19;;;;;;;15.45;3.65;;;;;;;22.49;100.00;100404.44;5059151;28;20049;-75
2021/05/03 00:22:05;;;;;;;18.50;4.45;;;;;;;22.66;100.00;100417.41;5058279;28;20033;-75
2021/05/03 00:24:51;;;;;;;12.95;3.50;;;;;;;22.60;100.00;100412.53;5044953;28;20182;-74
2021/05/03 00:27:37;;;;;;;16.10;3.63;;;;;;;22.53;100.00;100408.59;5057258;28;20377;-74
2021/05/03 00:30:23;;;;;;;18.90;4.45;;;;;;;22.64;100.00;100414.03;5044352;28;20035;-75
2021/05/03 00:33:09;;;;;;;15.63;3.72;;;;;;;22.51;100.00;100402.50;5058537;28;20028;-75
2021/05/03 00:35:54;;;;;;;21.58;4.00;;;;;;;22.91;100.00;100414.69;5058816;28;20033;-75
2021/05/03 00:38:40;;;;;;;14.32;3.88;;;;;;;22.94;100.00;100415.31;5058664;28;20025;-75
2021/05/03 00:41:26;;;;;;;18.13;3.80;;;;;;;22.55;100.00;100398.66;5058783;28;20036;-75
2021/05/03 00:44:12;;;;;;;17.10;4.00;;;;;;;22.89;100.00;100414.81;5058231;28;20032;-75
2021/05/03 00:46:59;;;;;;;15.77;3.90;;;;;;;22.88;100.00;100406.91;5057880;28;20055;-75
2021/05/03 00:49:45;;;;;;;18.58;4.00;;;;;;;23.06;100.00;100405.53;5057010;28;20368;-75
2021/05/03 00:52:31;;;;;;;22.00;3.80;;;;;;;22.85;100.00;100401.78;5058053;28;20033;-75
2021/05/03 00:55:17;;;;;;;20.60;3.80;;;;;;;22.88;100.00;100415.78;5057490;28;20087;-75
2021/05/03 00:58:04;;;;;;;22.10;3.70;;;;;;;22.94;99.54;100407.31;5058186;28;20461;-76
2021/05/03 01:00:49;;;;;;;21.42;3.97;;;;;;;22.65;99.14;100403.22;5057511;28;20029;-74
2021/05/03 01:03:35;;;;;;;13.02;3.15;;;;;;;22.64;98.26;100411.34;5043306;28;20067;-76
2021/05/03 01:06:21;;;;;;;18.92;3.70;;;;;;;22.66;96.28;100409.41;5057796;28;20525;-75
2021/05/03 01:09:07;;;;;;;13.18;3.60;;;;;;;22.84;93.17;100414.31;5056620;28;20033;-76
2021/05/03 01:11:53;;;;;;;12.77;3.15;;;;;;;22.91;91.84;100412.88;5057220;28;20024;-75
2021/05/03 01:14:39;;;;;;;13.02;3.10;;;;;;;22.63;91.29;100413.16;5057893;28;20029;-76
2021/05/03 01:17:36;;;;;;;14.48;3.20;;;;;;;22.57;90.80;100394.03;5043464;28;20071;-74
2021/05/03 01:20:23;;;;;;;15.88;3.47;;;;;;;22.81;89.21;100410.97;5058391;28;20073;-75
2021/05/03 01:23:09;;;;;;;16.05;3.67;;;;;;;22.93;87.83;100423.44;5058294;28;20107;-75
2021/05/03 01:25:55;;;;;;;14.43;3.22;;;;;;;22.96;87.96;100407.19;5057738;28;20421;-74
2021/05/03 01:28:41;;;;;;;22.02;3.40;;;;;;;22.86;87.88;100398.13;5057883;28;20098;-74
2021/05/03 01:31:26;;;;;;;19.05;4.20;;;;;;;22.75;85.57;100401.59;5042668;28;20025;-75
2021/05/03 01:34:12;;;;;;;14.93;3.40;;;;;;;22.63;85.05;100398.97;5042762;28;20056;-75
2021/05/03 01:36:58;;;;;;;19.85;3.42;;;;;;;22.88;82.73;100398.88;5058146;28;20434;-75
2021/05/03 01:39:44;;;;;;;20.73;3.72;;;;;;;22.71;82.88;100402.78;5057659;28;20025;-75
2021/05/03 01:42:30;;;;;;;14.50;3.38;;;;;;;22.72;82.88;100392.94;5043957;28;20360;-75
2021/05/03 01:45:21;;;;;;;17.83;3.50;;;;;;;22.61;83.77;100403.53;5056874;28;20025;-75
2021/05/03 01:48:09;;;;;;;15.55;3.30;;;;;;;22.70;83.70;100405.56;5043835;28;20025;-75
2021/05/03 01:50:57;;;;;;;14.90;3.17;;;;;;;22.53;84.89;100396.09;5057314;28;20043;-75
2021/05/03 01:53:43;;;;;;;14.43;3.80;;;;;;;22.38;85.21;100409.66;5056929;28;20037;-75
2021/05/03 01:56:29;;;;;;;13.40;3.15;;;;;;;22.35;85.55;100415.22;5042706;28;20025;-76
2021/05/03 01:59:14;;;;;;;15.10;3.20;;;;;;;22.14;86.83;100416.72;5057156;28;20094;-75
2021/05/03 02:02:01;;;;;;;14.40;3.33;;;;;;;22.23;86.48;100419.56;5057269;28;20025;-74
2021/05/03 02:04:47;;;;;;;15.90;2.90;;;;;;;22.06;87.87;100435.06;5042989;28;20044;-74
2021/05/03 02:07:32;;;;;;;16.42;3.33;;;;;;;21.84;88.51;100419.69;5056664;28;20120;-75
2021/05/03 02:10:18;;;;;;;15.35;3.10;;;;;;;21.85;88.74;100440.06;5056863;28;20029;-75
2021/05/03 02:13:05;;;;;;;16.30;3.65;;;;;;;21.70;88.85;100437.53;5042644;28;20456;-75
2021/05/03 02:15:51;;;;;;;16.75;3.03;;;;;;;21.78;88.72;100432.56;5055925;28;20048;-75
2021/05/03 02:18:37;;;;;;;11.95;3.00;;;;;;;21.91;87.99;100433.44;5041681;28;20449;-75
2021/05/03 02:21:22;;;;;;;9.52;2.85;;;;;;;21.76;89.15;100439.81;5056513;28;20449;-75
2021/05/03 02:24:08;;;;;;;14.55;3.33;;;;;;;21.78;88.97;100452.09;5056872;28;20147;-76
2021/05/03 02:26:54;;;;;;;13.90;3.10;;;;;;;21.56;90.09;100454.47;5056547;28;20039;-75
2021/05/03 02:29:40;;;;;;;12.90;2.78;;;;;;;21.56;90.25;100454.47;5056256;28;20110;-76
2021/05/03 02:32:26;;;;;;;13.95;3.03;;;;;;;21.54;91.25;100456.34;5041717;28;20472;-76
2021/05/03 02:35:23;;;;;;;15.75;3.05;;;;;;;21.54;90.51;100461.69;5041942;28;20454;-75
2021/05/03 02:38:09;;;;;;;22.27;3.85;;;;;;;21.63;91.21;100463.78;5056303;28;20029;-76
2021/05/03 02:40:55;;;;;;;12.38;3.08;;;;;;;21.59;91.26;100466.72;5055055;28;20091;-75
2021/05/03 02:43:41;;;;;;;17.73;3.38;;;;;;;21.22;93.91;100470.94;5056193;28;20369;-75
2021/05/03 02:46:28;;;;;;;15.50;2.95;;;;;;;21.27;94.18;100474.19;5055133;28;20110;-75
2021/05/03 02:49:13;;;;;;;14.85;3.17;;;;;;;21.26;95.60;100495.59;5055215;28;20029;-75
2021/05/03 02:51:59;;;;;;;14.68;2.83;;;;;;;20.94;96.47;100491.47;5056271;28;20033;-76
2021/05/03 02:54:45;;;;;;;14.70;3.63;;;;;;;20.94;96.68;100504.78;5056775;28;20480;-75
2021/05/03 02:57:31;;;;;;;16.35;3.05;;;;;;;21.17;95.16;100502.38;5041318;28;20082;-75
2021/05/03 03:00:34;;;;;;;13.77;3.20;;;;;;;21.04;95.62;100509.44;5055192;28;20082;-75
2021/05/03 03:03:20;;;;;;;13.52;3.33;;;;;;;21.12;95.08;100507.16;5041180;28;20024;-74
2021/05/03 03:06:06;;;;;;;13.88;3.30;;;;;;;21.40;92.72;100522.19;5055137;28;20091;-74
2021/05/03 03:08:51;;;;;;;14.45;2.58;;;;;;;20.76;94.64;100519.22;5055656;28;20040;-73
2021/05/03 03:11:38;;;;;;;12.23;2.83;;;;;;;20.80;95.98;100518.06;5055832;28;20449;-73
2021/05/03 03:14:24;;;;;;;12.27;2.83;;;;;;;20.80;95.00;100518.94;5041069;28;20476;-74
2021/05/03 03:17:09;;;;;;;15.27;3.03;;;;;;;20.75;95.20;100528.16;5055206;28;20043;-74
2021/05/03 03:19:55;;;;;;;16.40;2.78;;;;;;;20.88;94.48;100524.66;5055218;28;20035;-74
2021/05/03 03:22:41;;;;;;;12.27;3.13;;;;;;;21.00;93.26;100529.25;5040523;28;20029;-75
2021/05/03 03:25:29;;;;;;;12.57;3.08;;;;;;;20.80;94.19;100542.91;5055576;28;20029;-74
2021/05/03 03:28:14;;;;;;;12.38;3.05;;;;;;;20.48;96.72;100551.13;5055919;28;20441;-75
2021/05/03 03:31:00;;;;;;;14.23;3.72;;;;;;;20.48;96.98;100552.00;5055177;28;20036;-74
2021/05/03 03:33:46;;;;;;;13.48;2.78;;;;;;;20.45;97.60;100552.19;5056910;28;20472;-73
2021/05/03 03:36:32;;;;;;;11.82;3.10;;;;;;;20.11;99.66;100548.97;5057919;28;20025;-74
2021/05/03 03:39:18;;;;;;;12.05;3.40;;;;;;;20.17;100.00;100556.59;5040116;28;20048;-74
2021/05/03 03:42:03;;;;;;;15.82;3.42;;;;;;;20.28;100.00;100572.78;5055738;28;20354;-75
2021/05/03 03:44:49;;;;;;;13.55;2.72;;;;;;;20.31;100.00;100569.94;5040653;28;20021;-74
2021/05/03 03:47:35;;;;;;;14.40;3.20;;;;;;;20.36;100.00;100566.06;5055277;28;20061;-75
2021/05/03 03:50:21;;;;;;;11.02;2.70;;;;;;;20.51;100.00;100578.44;5040221;28;20466;-75
2021/05/03 03:53:07;;;;;;;15.60;3.08;;;;;;;20.27;100.00;100592.34;5044791;28;20402;-75
2021/05/03 03:55:53;;;;;;;12.68;2.60;;;;;;;20.19;100.00;100603.47;5059444;28;20040;-74
2021/05/03 03:58:40;;;;;;;15.85;3.42;;;;;;;20.35;100.00;100606.06;5060122;28;20052;-75
2021/05/03 04:01:26;;;;;;;13.77;3.50;;;;;;;20.12;100.00;100610.06;5058924;28;20519;-75
2021/05/03 04:04:20;;;;;;;14.95;2.83;;;;;;;20.00;100.00;100621.38;5059551;28;20060;-75
2021/05/03 04:07:19;;;;;;;15.82;3.15;;;;;;;19.78;100.00;100626.22;5045518;28;20053;-75
2021/05/03 04:10:19;;;;;;;14.80;2.90;;;;;;;20.02;100.00;100631.94;5044564;28;20043;-74
2021/05/03 04:27:39;;;;;;;12.15;2.83;;;;;;;20.11;100.00;100663.34;5058085;28;20040;-74
2021/05/03 04:30:25;;;;;;;17.05;3.25;;;;;;;20.00;100.00;100673.72;5058220;28;20029;-75
2021/05/03 04:33:11;;;;;;;15.82;3.47;;;;;;;20.21;100.00;100678.69;5058387;28;20094;-75
2021/05/03 04:35:58;;;;;;;17.95;3.25;;;;;;;20.25;100.00;100669.59;5044154;28;20379;-75
2021/05/03 04:38:45;;;;;;;16.98;3.22;;;;;;;20.39;100.00;100675.00;5043604;28;20453;-74
2021/05/03 04:41:30;;;;;;;14.23;3.08;;;;;;;20.13;100.00;100688.91;5058002;28;20029;-75
2021/05/03 04:44:16;;;;;;;15.65;3.47;;;;;;;19.90;100.00;100694.69;5057784;28;20040;-73
2021/05/03 04:47:02;;;;;;;17.20;3.47;;;;;;;19.80;100.00;100705.91;5057765;28;20053;-75
2021/05/03 04:49:48;;;;;;;10.70;2.90;;;;;;;19.95;100.00;100715.66;5057924;28;20025;-75
2021/05/03 04:52:34;;;;;;;22.90;3.53;;;;;;;19.87;100.00;100710.78;5057522;28;20041;-75
2021/05/03 04:55:20;;;;;;;23.40;3.83;;;;;;;19.69;100.00;100718.94;5043881;28;20032;-74
2021/05/03 04:58:06;;;;;;;14.80;3.65;;;;;;;19.98;100.00;100721.69;5057363;28;20086;-75
2021/05/03 05:00:52;;;;;;;12.82;3.20;;;;;;;19.75;100.00;100729.22;5058667;28;20047;-74
2021/05/03 05:03:37;;;;;;;15.32;3.17;;;;;;;19.84;100.00;100729.56;5057670;28;20044;-74
2021/05/03 05:06:23;;;;;;;16.65;3.30;;;;;;;19.72;100.00;100724.91;5057497;28;20040;-74
2021/05/03 05:09:09;;;;;;;19.85;3.88;;;;;;;19.98;100.00;100742.09;5057668;28;20041;-74
2021/05/03 05:11:55;;;;;;;9.50;3.08;;;;;;;20.09;100.00;100739.72;5057373;28;20042;-74
2021/05/03 05:14:41;;;;;;;17.05;3.63;;;;;;;20.04;100.00;100737.31;5056580;28;20067;-74
2021/05/03 05:17:27;;;;;;;17.15;3.85;;;;;;;20.07;100.00;100736.25;5042863;28;20346;-75
2021/05/03 05:20:13;;;;;;;12.95;2.97;;;;;;;20.15;100.00;100734.06;5042410;28;20021;-76
2021/05/03 05:22:59;;;;;;;12.88;3.60;;;;;;;20.22;100.00;100743.44;5058244;28;20033;-76
2021/05/03 05:25:45;;;;;;;16.05;3.50;;;;;;;20.06;100.00;100738.09;5058054;28;20029;-75
2021/05/03 05:28:30;;;;;;;14.23;3.47;;;;;;;20.35;100.00;100740.00;5058235;28;20325;-75
2021/05/03 05:31:16;;;;;;;11.40;2.90;;;;;;;20.15;100.00;100740.25;5057464;28;20063;-75
2021/05/03 05:34:02;;;;;;;14.45;3.90;;;;;;;20.21;100.00;100749.69;5057498;28;20029;-75
2021/05/03 05:36:48;;;;;;;14.63;3.35;;;;;;;20.32;100.00;100747.28;5044030;28;20028;-76
2021/05/03 05:39:34;;;;;;;15.18;3.40;;;;;;;20.57;100.00;100744.94;5055903;28;20084;-76
2021/05/03 05:42:20;;;;;;;14.07;3.80;;;;;;;20.61;100.00;100762.47;5055819;28;20033;-75
2021/05/03 05:45:06;;;;;;;19.60;4.10;;;;;;;20.66;100.00;100779.84;5042541;28;20028;-76
2021/05/03 05:47:52;;;;;;;11.02;3.25;;;;;;;20.86;100.00;100771.56;5057943;28;20040;-75
2021/05/03 05:50:38;;;;;;;24.67;3.80;;;;;;;20.58;100.00;100775.94;5056941;28;20057;-75
2021/05/03 05:53:24;;;;;;;12.50;3.58;;;;;;;21.05;100.00;100782.88;5057215;28;20382;-77
2021/05/03 05:56:10;;;;;;;13.38;3.08;;;;;;;20.88;100.00;100783.00;5057293;28;20119;-75
2021/05/03 05:58:55;;;;;;;14.60;2.90;;;;;;;20.96;100.00;100791.44;5055870;28;20029;-75
2021/05/03 06:01:42;;;;;;;13.70;2.80;;;;;;;20.76;100.00;100794.38;5057207;28;20087;-75
2021/05/03 06:04:28;;;;;;;16.60;3.53;;;;;;;20.94;100.00;100795.13;5056504;28;20108;-74
2021/05/03 06:07:13;;;;;;;11.65;3.13;;;;;;;21.20;100.00;100805.97;5057098;28;20426;-76
2021/05/03 06:09:59;;;;;;;13.10;2.53;;;;;;;21.09;100.00;100799.56;5056981;28;20167;-75
2021/05/03 06:12:45;;;;;;;13.57;3.03;;;;;;;21.44;100.00;100812.50;5056271;28;20051;-74
2021/05/03 06:15:31;;;;;;;9.75;2.90;;;;;;;21.51;100.00;100823.63;5041120;28;20138;-74
2021/05/03 06:18:16;;;;;;;8.13;2.75;;;;;;;21.29;100.00;100828.53;5057074;28;20017;-75
2021/05/03 06:21:02;;;;;;;12.85;2.83;;;;;;;21.38;100.00;100823.50;5055858;28;20036;-74
2021/05/03 06:23:49;;;;;;;8.48;2.30;;;;;;;21.27;100.00;100818.00;5056650;28;20033;-73
2021/05/03 06:26:34;;;;;;;13.85;2.42;;;;;;;21.54;100.00;100829.63;5056349;28;20033;-74
2021/05/03 06:29:20;;;;;;;9.70;2.05;;;;;;;21.73;100.00;100832.94;5056694;28;20028;-73
2021/05/03 06:32:06;;;;;;;9.90;2.00;;;;;;;21.92;100.00;100838.88;5041677;28;20024;-75
2021/05/03 06:34:52;;;;;;;9.57;2.53;;;;;;;21.92;100.00;100838.88;5056411;28;20030;-75
2021/05/03 06:37:38;;;;;;;10.68;2.60;;;;;;;22.03;100.00;100836.34;5055383;28;20028;-74
2021/05/03 06:40:24;;;;;;;15.23;2.50;;;;;;;22.13;100.00;100829.50;5056716;28;20135;-75
2021/05/03 06:43:10;;;;;;;6.63;1.60;;;;;;;22.05;100.00;100831.81;5055678;28;20024;-75
2021/05/03 06:45:57;;;;;;;11.18;2.40;;;;;;;22.35;100.00;100837.84;5056052;28;20052;-75
2021/05/03 06:48:42;;;;;;;10.55;2.30;;;;;;;22.21;100.00;100848.56;5055793;28;20392;-76
2021/05/03 06:51:28;;;;;;;14.23;2.10;;;;;;;22.28;100.00;100865.91;5056195;28;20033;-75
2021/05/03 06:54:14;;;;;;;8.57;1.80;;;;;;;22.23;100.00;100861.81;5056242;28;20112;-75
2021/05/03 06:57:00;;;;;;;6.18;1.92;;;;;;;22.15;100.00;100848.09;5041416;28;20067;-75
2021/05/03 06:59:45;;;;;;;7.25;1.70;;;;;;;22.54;100.00;100845.56;5055386;28;20116;-75
2021/05/03 07:02:31;;;;;;;5.20;1.70;;;;;;;22.73;100.00;100860.31;5053978;28;20041;-75
2021/05/03 07:05:17;;;;;;;5.65;1.55;;;;;;;22.80;100.00;100867.00;5055170;28;20464;-76
2021/05/03 07:08:05;;;;;;;5.82;1.58;;;;;;;22.77;100.00;100869.84;5054906;28;20037;-76
2021/05/03 07:10:54;;;;;;;4.32;1.70;;;;;;;22.94;100.00;100871.41;5055957;28;20029;-76
2021/05/03 07:13:40;;;;;;;8.95;1.85;;;;;;;22.89;100.00;100857.50;5055900;28;20093;-76
2021/05/03 07:16:26;;;;;;;7.57;1.58;;;;;;;23.09;100.00;100871.28;5055628;28;20171;-75
2021/05/03 07:19:12;;;;;;;4.88;1.67;;;;;;;23.03;100.00;100866.31;5055604;28;20025;-75
2021/05/03 07:21:58;;;;;;;10.63;1.80;;;;;;;23.10;100.00;100867.63;5055564;28;20365;-76
2021/05/03 07:24:43;;;;;;;6.00;1.88;;;;;;;23.11;100.00;100863.16;5042067;28;20020;-76
2021/05/03 07:27:29;;;;;;;9.80;2.20;;;;;;;23.12;100.00;100859.50;5055464;28;20083;-75
2021/05/03 07:30:16;;;;;;;8.85;2.13;;;;;;;23.60;100.00;100850.88;5055171;28;20029;-75
2021/05/03 07:33:01;;;;;;;8.02;1.77;;;;;;;23.21;100.00;100846.44;5054893;28;20052;-75
2021/05/03 07:35:47;;;;;;;8.43;1.70;;;;;;;23.49;100.00;100861.44;5055691;28;20111;-75
2021/05/03 07:38:33;;;;;;;5.30;1.90;;;;;;;23.34;100.00;100855.31;5040292;28;20025;-76
2021/05/03 07:41:19;;;;;;;5.20;1.77;;;;;;;23.52;100.00;100845.19;5040621;28;20048;-75
2021/05/03 07:44:05;;;;;;;6.05;2.03;;;;;;;23.64;100.00;100849.69;5040715;28;20029;-76
2021/05/03 07:46:50;;;;;;;10.85;1.60;;;;;;;23.83;100.00;100846.59;5054932;28;20049;-76
2021/05/03 07:49:39;;;;;;;7.13;1.70;;;;;;;23.79;100.00;100837.91;5040750;28;20508;-76
2021/05/03 07:52:25;;;;;;;3.78;1.50;;;;;;;23.95;100.00;100840.41;5040957;28;20108;-75
2021/05/03 07:55:12;;;;;;;7.07;1.63;;;;;;;24.27;100.00;100844.34;5041445;28;20052;-76
2021/05/03 07:58:00;;;;;;;8.63;1.73;;;;;;;24.36;98.33;100843.66;5055380;28;20025;-75
2021/05/03 08:00:47;;;;;;;7.28;1.40;;;;;;;24.25;99.13;100846.25;5055190;28;20021;-75
2021/05/03 08:03:39;;;;;;;29.58;2.00;;;;;;;24.31;97.82;100829.75;5054966;28;20111;-75
2021/05/03 08:06:25;;;;;;;6.15;1.63;;;;;;;24.52;94.68;100847.81;5055267;28;20060;-75
2021/05/03 08:09:11;;;;;;;5.60;1.75;;;;;;;24.68;93.04;100843.09;5055189;28;20094;-75
2021/05/03 08:11:57;;;;;;;6.30;1.98;;;;;;;25.37;88.40;100850.38;5041143;28;20037;-75
2021/05/03 08:14:44;;;;;;;9.23;1.67;;;;;;;25.32;86.19;100863.28;5055229;28;20017;-75
2021/05/03 08:17:29;;;;;;;7.25;1.58;;;;;;;25.37;84.99;100859.28;5055313;28;20067;-75
2021/05/03 08:20:17;;;;;;;7.30;1.50;;;;;;;25.33;84.87;100856.94;5054987;28;20025;-75
2021/05/03 08:23:08;;;;;;;4.72;1.40;;;;;;;25.33;83.98;100867.66;5040531;28;20068;-75
2021/05/03 08:25:55;;;;;;;3.65;1.27;;;;;;;25.48;81.72;100866.50;5054769;28;20343;-75
2021/05/03 08:28:46;;;;;;;5.97;1.40;;;;;;;25.27;82.23;100857.38;5041055;28;20042;-74
2021/05/03 08:31:32;;;;;;;8.10;1.60;;;;;;;25.49;80.48;100846.75;5040733;28;20029;-74
2021/05/03 08:34:18;;;;;;;7.15;1.52;;;;;;;25.19;80.40;100863.31;5054411;28;20028;-76
2021/05/03 08:37:04;;;;;;;5.82;1.52;;;;;;;25.47;78.77;100864.81;5054375;28;20523;-75
2021/05/03 08:39:50;;;;;;;10.25;1.60;;;;;;;25.68;77.43;100861.28;5058028;28;20017;-76
2021/05/03 08:42:36;;;;;;;5.20;1.40;;;;;;;25.86;76.72;100861.69;5058577;28;20028;-76
2021/05/03 08:45:23;;;;;;;4.80;1.33;;;;;;;25.67;74.89;100861.41;5057329;28;20104;-75
2021/05/03 08:51:43;;;;;;;7.57;1.35;;;;;;;26.33;69.08;100856.16;4997115;28;20034;-76
2021/05/03 08:54:40;;;;;;;5.95;1.35;;;;;;;26.12;68.46;100856.00;4985250;28;20065;-76
2021/05/03 08:57:26;;;;;;;9.38;1.67;;;;;;;25.81;68.55;100859.41;5058368;28;20167;-76
2021/05/03 09:00:15;;;;;;;5.63;1.30;;;;;;;25.81;67.59;100861.22;5059069;28;20021;-76
2021/05/03 09:03:04;;;;;;;4.20;1.58;;;;;;;26.24;68.52;100867.63;5057349;28;20389;-75
2021/05/03 09:05:50;;;;;;;5.03;1.40;;;;;;;26.19;66.50;100880.56;5058300;28;20438;-75
2021/05/03 09:08:36;;;;;;;7.70;1.40;;;;;;;26.11;67.42;100883.84;5057315;28;20040;-75
2021/05/03 09:11:21;;;;;;;6.55;1.70;;;;;;;26.40;64.94;100876.19;5058211;28;20437;-75
2021/05/03 09:14:14;;;;;;;46.20;3.28;;;;;;;26.14;63.38;100885.44;5043104;28;20025;-75
2021/05/03 09:17:00;;;;;;;7.68;1.40;;;;;;;26.26;63.00;100888.03;5042834;28;20485;-75
2021/05/03 09:19:46;;;;;;;9.23;1.90;;;;;;;26.15;62.02;100901.44;5057070;28;20025;-75
2021/05/03 09:22:51;;;;;;;5.95;1.35;;;;;;;26.34;61.22;100892.78;5043432;28;20112;-75
2021/05/03 09:25:43;;;;;;;2.47;1.27;;;;;;;26.23;61.21;100890.09;5057596;28;20025;-75
2021/05/03 09:28:30;;;;;;;5.10;1.40;;;;;;;26.25;60.44;100891.69;5042142;28;20048;-74
2021/05/03 09:31:16;;;;;;;13.45;2.05;;;;;;;26.06;61.33;100890.56;5056186;28;20024;-75
2021/05/03 09:34:01;;;;;;;7.80;1.70;;;;;;;26.55;60.19;100907.19;5057540;28;20107;-76
2021/05/03 09:36:47;;;;;;;5.05;1.63;;;;;;;26.23;57.15;100892.75;5056759;28;20025;-75
2021/05/03 09:39:33;;;;;;;9.25;1.85;;;;;;;25.96;56.70;100892.28;5057846;28;20500;-76
2021/05/03 09:42:19;;;;;;;12.05;2.00;;;;;;;25.86;58.73;100896.59;5056345;28;20033;-75
2021/05/03 09:45:08;;;;;;;7.47;1.70;;;;;;;25.86;65.04;100899.28;5057119;28;20032;-75
2021/05/03 09:47:55;;;;;;;5.50;1.77;;;;;;;26.08;66.65;100899.38;5055280;28;20045;-75
2021/05/03 09:50:41;;;;;;;7.70;1.67;;;;;;;26.08;67.05;100894.00;5041181;28;20354;-76
2021/05/03 09:53:27;;;;;;;6.05;1.45;;;;;;;25.98;69.76;100899.22;5056949;28;20067;-75
2021/05/03 09:56:13;;;;;;;5.88;1.52;;;;;;;26.05;67.54;100903.16;5041458;28;20393;-76
2021/05/03 09:58:59;;;;;;;5.53;1.80;;;;;;;26.03;66.55;100912.28;5056598;28;20021;-76
2021/05/03 10:02:14;;;;;;;4.55;1.58;;;;;;;26.21;65.39;100903.66;5055656;28;20468;-75
2021/05/03 10:07:54;;;;;;;4.90;1.80;;;;;;;25.60;67.07;100897.78;5056423;28;20100;-75
2021/05/03 10:10:45;;;;;;;5.35;1.65;;;;;;;25.68;68.12;100892.69;5055964;28;20118;-75
2021/05/03 10:13:33;;;;;;;6.78;1.70;;;;;;;25.69;66.32;100886.31;5054676;28;20067;-75
2021/05/03 10:16:19;;;;;;;6.90;1.67;;;;;;;25.55;65.42;100897.28;5056562;28;20032;-75
2021/05/03 10:19:07;;;;;;;4.00;1.50;;;;;;;25.70;64.56;100905.00;5056213;28;20029;-75
2021/05/03 10:21:52;;;;;;;10.75;1.85;;;;;;;25.80;63.72;100889.03;5057946;28;20206;-75
2021/05/03 10:24:38;;;;;;;11.10;1.65;;;;;;;25.74;64.11;100897.56;5057314;28;20067;-75
2021/05/03 10:27:25;;;;;;;5.55;1.42;;;;;;;25.57;64.16;100892.63;5055810;28;20032;-75
2021/05/03 10:30:21;;;;;;;7.65;1.98;;;;;;;25.57;65.45;100889.94;5055951;28;20036;-75
2021/05/03 10:33:09;;;;;;;9.13;1.65;;;;;;;25.68;63.77;100887.31;5055743;28;20465;-75
2021/05/03 10:35:56;;;;;;;13.82;1.80;;;;;;;25.81;62.81;100891.59;5056310;28;20040;-75
2021/05/03 10:38:42;;;;;;;7.38;1.58;;;;;;;25.50;61.47;100892.25;5054012;28;20116;-76
2021/05/03 10:41:32;;;;;;;10.02;1.73;;;;;;;25.74;60.52;100878.75;5055820;28;20043;-75
2021/05/03 10:44:21;;;;;;;9.50;2.10;;;;;;;25.74;58.84;100882.31;5028051;28;20052;-75
2021/05/03 10:47:27;;;;;;;7.20;1.80;;;;;;;25.57;55.69;100880.09;5040554;28;20041;-75
2021/05/03 10:50:30;;;;;;;4.22;1.70;;;;;;;25.97;56.94;100876.06;5055623;28;20444;-75
2021/05/03 10:53:25;;;;;;;7.45;1.42;;;;;;;26.05;54.70;100878.13;5055593;28;20032;-75
2021/05/03 10:56:11;;;;;;;9.15;1.40;;;;;;;26.32;53.35;100863.34;5040050;28;20024;-75
2021/05/03 10:58:57;;;;;;;10.15;1.73;;;;;;;26.53;53.28;100884.97;5055272;28;20353;-75
2021/05/03 11:01:52;;;;;;;10.95;2.22;;;;;;;26.21;53.45;100886.69;5055232;28;20449;-75
2021/05/03 11:04:39;;;;;;;13.45;2.10;;;;;;;26.29;53.05;100879.69;5039772;28;20025;-75
2021/05/03 11:07:25;;;;;;;9.13;2.00;;;;;;;26.60;53.58;100880.84;5055635;28;20024;-76
2021/05/03 11:10:11;;;;;;;16.70;1.80;;;;;;;26.04;54.76;100879.94;5054590;28;20033;-74
2021/05/03 11:12:57;;;;;;;5.97;1.92;;;;;;;26.40;54.20;100870.81;5055295;28;20033;-75
2021/05/03 11:15:42;;;;;;;13.30;1.85;;;;;;;26.29;52.81;100868.94;5054513;28;20059;-76
2021/05/03 11:18:40;;;;;;;9.15;1.70;;;;;;;26.54;50.13;100875.91;5054659;28;20025;-75
2021/05/03 11:21:41;;;;;;;8.10;1.85;;;;;;;26.24;49.88;100873.00;5053715;28;20029;-75
2021/05/03 11:24:34;;;;;;;11.60;1.70;;;;;;;26.37;48.44;100887.16;5053906;28;20060;-75
2021/05/03 11:27:41;;;;;;;16.00;2.08;;;;;;;26.46;48.36;100894.47;5055292;28;20108;-74
2021/05/03 11:30:34;;;;;;;6.82;1.70;;;;;;;26.37;48.87;100889.84;5054957;28;20362;-75
2021/05/03 11:33:33;;;;;;;8.18;1.70;;;;;;;26.38;45.73;100883.50;5039435;28;20114;-75
2021/05/03 11:36:23;;;;;;;4.47;1.40;;;;;;;26.64;46.16;100868.84;5054523;28;20134;-76
2021/05/03 11:39:23;;;;;;;6.00;1.90;;;;;;;26.97;42.70;100868.78;5055267;28;20059;-75
2021/05/03 11:45:23;;;;;;;7.80;2.20;;;;;;;26.61;44.91;100869.09;5054377;28;20025;-74
2021/05/03 11:48:09;;;;;;;14.90;2.33;;;;;;;26.88;43.34;100874.91;5041206;28;20025;-76
2021/05/03 11:51:13;;;;;;;124.13;7.07;;;;;;;26.75;40.46;100868.81;5040822;28;20039;-75
2021/05/03 11:53:59;;;;;;;5.03;1.60;;;;;;;27.05;41.10;100859.06;5040155;28;20029;-75
2021/05/03 11:56:44;;;;;;;6.05;1.60;;;;;;;26.63;39.21;100864.44;5054169;28;20041;-75
2021/05/03 11:59:31;;;;;;;11.52;1.48;;;;;;;26.59;39.37;100860.28;5040454;28;20094;-74
2021/05/03 12:02:17;;;;;;;15.32;1.90;;;;;;;26.64;39.25;100860.78;5054720;28;20059;-75
2021/05/03 12:05:13;;;;;;;3.80;1.60;;;;;;;26.70;38.35;100849.53;5054165;28;20040;-75
2021/05/03 12:08:12;;;;;;;15.15;9.38;;;;;;;26.60;39.26;100854.78;5054850;28;20115;-75
2021/05/03 12:11:06;;;;;;;7.20;1.83;;;;;;;26.83;38.98;100869.91;5055744;28;20039;-75
2021/05/03 12:13:56;;;;;;;85.93;5.53;;;;;;;26.50;38.99;100840.38;5043964;28;20121;-76
2021/05/03 12:16:42;;;;;;;18.52;2.17;;;;;;;26.33;40.18;100840.84;5044911;28;20033;-75
2021/05/03 12:19:28;;;;;;;17.30;2.40;;;;;;;26.35;40.47;100848.81;5058647;28;20025;-75
2021/05/03 12:22:14;;;;;;;8.05;1.85;;;;;;;26.82;39.23;100856.59;5059104;28;20031;-75
2021/05/03 12:25:07;;;;;;;4.95;1.75;;;;;;;26.68;38.56;100867.63;5058199;28;20025;-75
2021/05/03 12:27:53;;;;;;;12.23;1.90;;;;;;;27.03;37.09;100847.59;5043187;28;20028;-74
2021/05/03 12:30:40;;;;;;;9.15;1.80;;;;;;;26.67;36.91;100857.84;5058961;28;20060;-75
2021/05/03 12:33:27;;;;;;;4.35;1.75;;;;;;;26.90;36.63;100854.97;5044067;28;20036;-75
2021/05/03 12:36:13;;;;;;;19.60;10.13;;;;;;;26.81;35.87;100863.78;5058840;28;20366;-75
2021/05/03 12:39:08;;;;;;;8.07;2.13;;;;;;;27.15;36.63;100861.84;5059812;28;20087;-75
2021/05/03 12:41:55;;;;;;;5.35;1.77;;;;;;;26.92;36.92;100858.38;5030849;28;20025;-75
2021/05/03 12:44:44;;;;;;;13.63;2.35;;;;;;;26.54;35.32;100863.34;5057604;28;20043;-75
2021/05/03 12:47:49;;;;;;;7.03;1.58;;;;;;;26.65;35.67;100866.00;5025163;28;20042;-75
2021/05/03 12:57:25;;;;;;;7.93;1.73;;;;;;;25.78;36.08;100896.34;5037920;28;20104;-75
2021/05/03 13:00:14;;;;;;;12.85;1.77;;;;;;;25.75;36.35;100891.19;5022753;28;20036;-74
2021/05/03 13:03:15;;;;;;;7.95;1.50;;;;;;;26.24;37.11;100889.97;5022631;28;20039;-75
2021/05/03 13:12:23;;;;;;;5.97;1.48;;;;;;;25.87;35.32;100871.47;5037809;28;20041;-75
2021/05/03 13:25:28;;;;;;;5.40;1.98;;;;;;;25.94;34.52;100864.66;5037360;28;20124;-75
2021/05/03 13:30:51;;;;;;;19.63;2.33;;;;;;;25.59;35.95;100875.44;5037498;28;20025;-75
2021/05/03 13:33:37;;;;;;;5.80;1.45;;;;;;;25.50;33.03;100861.88;5021466;28;20047;-75
2021/05/03 13:36:23;;;;;;;14.20;2.22;;;;;;;25.35;33.67;100873.78;5023716;28;20456;-75
2021/05/03 13:39:10;;;;;;;5.68;1.80;;;;;;;25.59;33.61;100894.22;5036522;28;20040;-75
2021/05/03 13:41:56;;;;;;;7.38;2.47;;;;;;;25.58;33.53;100891.66;5037546;28;20040;-75